createdAt,value
2022-12-18T00:02:05.516Z,102045.48
2022-12-18T00:04:37.100Z,102053.50
2022-12-18T00:07:07.023Z,102053.27
2022-12-18T00:09:40.056Z,102060.02
2022-12-18T00:14:44.554Z,102059.89
2022-12-18T00:17:12.836Z,102059.90
2022-12-18T00:19:43.814Z,102063.18
2022-12-18T00:22:23.124Z,102068.63
2022-12-18T00:24:51.583Z,102075.61
2022-12-18T00:27:22.076Z,102079.95
2022-12-18T00:29:50.574Z,102079.79
2022-12-18T00:32:21.822Z,102080.52
2022-12-18T00:34:50.129Z,102082.98
2022-12-18T00:37:20.302Z,102086.52
2022-12-18T00:39:54.799Z,102093.52
2022-12-18T00:42:41.596Z,102097.70
2022-12-18T00:45:12.559Z,102102.15
2022-12-18T00:47:44.813Z,102100.34
2022-12-18T00:50:13.918Z,102101.84
2022-12-18T00:52:47.657Z,102098.86
2022-12-18T00:55:18.309Z,102100.46
2022-12-18T00:57:52.965Z,102105.73
2022-12-18T01:00:21.631Z,102108.15
2022-12-18T01:02:50.000Z,102114.13
2022-12-18T01:05:18.833Z,102117.98
2022-12-18T01:07:47.586Z,102120.78
2022-12-18T01:10:16.790Z,102121.98
2022-12-18T01:12:49.344Z,102122.84
2022-12-18T01:15:18.556Z,102122.09
2022-12-18T01:17:46.797Z,102121.84
2022-12-18T01:20:16.349Z,102125.08
2022-12-18T01:22:45.199Z,102125.83
2022-12-18T01:25:14.799Z,102132.73
2022-12-18T01:27:45.338Z,102135.44
2022-12-18T01:30:15.031Z,102134.17
2022-12-18T01:32:43.804Z,102135.31
2022-12-18T01:35:12.659Z,102144.66
2022-12-18T01:37:43.357Z,102153.21
2022-12-18T01:40:12.882Z,102159.17
2022-12-18T01:42:44.952Z,102165.45
2022-12-18T01:45:32.911Z,102166.63
2022-12-18T01:48:04.807Z,102170.56
2022-12-18T01:50:35.533Z,102175.23
2022-12-18T01:53:07.791Z,102174.02
2022-12-18T01:55:40.775Z,102176.30
2022-12-18T01:58:12.913Z,102178.58
2022-12-18T02:00:41.220Z,102177.39
2022-12-18T02:03:09.679Z,102176.91
2022-12-18T02:05:45.883Z,102178.48
2022-12-18T02:08:20.433Z,102185.98
2022-12-18T02:10:58.191Z,102192.63
2022-12-18T02:13:47.703Z,102202.15
2022-12-18T02:16:24.837Z,102205.17
2022-12-18T02:19:00.819Z,102212.88
2022-12-18T02:21:44.111Z,102212.25
2022-12-18T02:24:23.190Z,102214.59
2022-12-18T02:26:59.689Z,102221.98
2022-12-18T02:29:34.470Z,102227.16
2022-12-18T02:32:12.931Z,102225.31
2022-12-18T02:34:44.953Z,102224.33
2022-12-18T02:37:22.359Z,102227.75
2022-12-18T02:39:51.700Z,102234.41
2022-12-18T02:42:20.494Z,102240.83
2022-12-18T02:44:50.682Z,102243.50
2022-12-18T02:47:21.697Z,102246.11
2022-12-18T02:49:56.671Z,102248.02
2022-12-18T02:52:32.675Z,102247.70
2022-12-18T02:55:12.774Z,102250.49
2022-12-18T02:57:45.454Z,102255.26
2022-12-18T03:00:18.169Z,102259.55
2022-12-18T03:02:51.520Z,102265.23
2022-12-18T03:05:22.482Z,102271.13
2022-12-18T03:08:00.769Z,102276.45
2022-12-18T03:10:31.258Z,102279.48
2022-12-18T03:13:04.338Z,102289.45
2022-12-18T03:15:39.149Z,102291.40
2022-12-18T03:18:11.390Z,102298.20
2022-12-18T03:20:44.153Z,102302.65
2022-12-18T03:23:22.322Z,102303.89
2022-12-18T03:25:57.630Z,102303.71
2022-12-18T03:28:26.902Z,102302.91
2022-12-18T03:30:57.989Z,102304.00
2022-12-18T03:33:30.008Z,102307.62
2022-12-18T03:35:58.397Z,102312.00
2022-12-18T03:38:29.060Z,102313.53
2022-12-18T03:41:04.477Z,102318.55
2022-12-18T03:43:43.972Z,102323.32
2022-12-18T03:46:18.555Z,102330.73
2022-12-18T03:48:52.813Z,102334.31
2022-12-18T03:51:25.881Z,102333.83
2022-12-18T03:53:57.049Z,102333.64
2022-12-18T03:56:29.915Z,102332.94
2022-12-18T03:58:59.875Z,102333.13
2022-12-18T04:01:32.938Z,102341.15
2022-12-18T04:04:02.788Z,102343.02
2022-12-18T04:06:32.277Z,102345.78
2022-12-18T04:09:01.371Z,102351.15
2022-12-18T04:11:30.375Z,102348.14
2022-12-18T04:13:59.539Z,102349.48
2022-12-18T04:16:29.764Z,102351.19
2022-12-18T04:19:00.733Z,102355.38
2022-12-18T04:21:29.066Z,102361.86
2022-12-18T04:23:57.448Z,102365.74
2022-12-18T04:26:25.755Z,102369.31
2022-12-18T04:28:54.122Z,102372.18
2022-12-18T04:31:23.463Z,102376.63
2022-12-18T04:33:52.596Z,102376.00
2022-12-18T04:36:22.435Z,102381.64
2022-12-18T04:38:50.963Z,102382.58
2022-12-18T04:41:19.605Z,102388.04
2022-12-18T04:43:48.183Z,102393.50
2022-12-18T04:46:16.768Z,102393.71
2022-12-18T04:48:47.090Z,102400.87
2022-12-18T04:51:16.465Z,102403.10
2022-12-18T04:53:45.013Z,102406.36
2022-12-18T04:56:15.770Z,102411.38
2022-12-18T04:58:45.838Z,102412.89
2022-12-18T05:01:17.883Z,102413.39
2022-12-18T05:03:46.811Z,102419.17
2022-12-18T05:06:15.826Z,102424.63
2022-12-18T05:08:44.829Z,102427.48
2022-12-18T05:11:16.056Z,102425.95
2022-12-18T05:13:45.267Z,102430.29
2022-12-18T05:16:14.655Z,102434.94
2022-12-18T05:18:43.401Z,102439.98
2022-12-18T05:21:12.133Z,102447.64
2022-12-18T05:23:40.620Z,102448.16
2022-12-18T05:26:18.576Z,102450.51
2022-12-18T05:28:47.331Z,102453.55
2022-12-18T05:31:16.210Z,102456.05
2022-12-18T05:33:44.808Z,102463.27
2022-12-18T05:36:13.815Z,102461.20
2022-12-18T05:38:42.267Z,102461.22
2022-12-18T05:41:10.975Z,102471.74
2022-12-18T05:43:42.250Z,102473.89
2022-12-18T05:46:14.243Z,102480.75
2022-12-18T05:48:43.299Z,102482.15
2022-12-18T05:51:13.287Z,102486.94
2022-12-18T05:53:44.184Z,102496.42
2022-12-18T05:56:14.945Z,102496.33
2022-12-18T05:58:44.543Z,102498.27
2022-12-18T06:01:15.279Z,102496.52
2022-12-18T06:03:44.344Z,102497.45
2022-12-18T06:06:18.384Z,102502.24
2022-12-18T06:08:47.884Z,102507.36
2022-12-18T06:11:19.553Z,102507.05
2022-12-18T06:13:53.510Z,102511.11
2022-12-18T06:16:24.809Z,102516.61
2022-12-18T06:18:56.411Z,102518.05
2022-12-18T06:21:28.164Z,102522.30
2022-12-18T06:23:58.823Z,102526.16
2022-12-18T06:26:29.758Z,102531.22
2022-12-18T06:28:58.618Z,102539.11
2022-12-18T06:31:28.194Z,102549.59
2022-12-18T06:33:57.836Z,102558.52
2022-12-18T06:36:26.107Z,102566.77
2022-12-18T06:38:54.326Z,102571.73
2022-12-18T06:41:23.242Z,102577.02
2022-12-18T06:43:59.423Z,102575.27
2022-12-18T06:46:30.251Z,102584.90
2022-12-18T06:48:58.564Z,102583.50
2022-12-18T06:51:27.018Z,102587.73
2022-12-18T06:53:55.480Z,102590.54
2022-12-18T06:56:24.162Z,102589.48
2022-12-18T06:58:53.330Z,102599.27
2022-12-18T07:01:22.533Z,102602.90
2022-12-18T07:03:57.320Z,102606.73
2022-12-18T07:06:26.767Z,102611.46
2022-12-18T07:08:55.338Z,102615.13
2022-12-18T07:11:23.826Z,102617.38
2022-12-18T07:13:53.858Z,102622.11
2022-12-18T07:16:25.635Z,102619.51
2022-12-18T07:18:56.212Z,102627.35
2022-12-18T07:21:25.355Z,102635.55
2022-12-18T07:23:53.594Z,102637.23
2022-12-18T07:26:23.824Z,102638.95
2022-12-18T07:28:59.187Z,102642.39
2022-12-18T07:31:28.854Z,102644.57
2022-12-18T07:33:57.902Z,102643.74
2022-12-18T07:36:26.757Z,102645.73
2022-12-18T07:38:57.404Z,102647.36
2022-12-18T07:41:28.514Z,102650.63
2022-12-18T07:43:56.845Z,102651.19
2022-12-18T07:46:27.269Z,102652.83
2022-12-18T07:48:55.914Z,102657.11
2022-12-18T07:51:24.569Z,102661.73
2022-12-18T07:53:52.936Z,102667.10
2022-12-18T07:56:29.067Z,102667.09
2022-12-18T07:58:59.508Z,102674.08
2022-12-18T08:01:28.567Z,102676.98
2022-12-18T08:03:57.710Z,102686.15
2022-12-18T08:06:26.087Z,102691.35
2022-12-18T08:08:57.185Z,102696.58
2022-12-18T08:11:28.406Z,102699.25
2022-12-18T08:13:58.590Z,102702.92
2022-12-18T08:16:27.501Z,102704.48
2022-12-18T08:18:56.090Z,102707.80
2022-12-18T08:21:26.660Z,102708.14
2022-12-18T08:23:57.508Z,102708.64
2022-12-18T08:26:27.402Z,102706.52
2022-12-18T08:28:56.899Z,102710.86
2022-12-18T08:31:27.068Z,102717.25
2022-12-18T08:33:59.496Z,102723.45
2022-12-18T08:36:28.029Z,102725.80
2022-12-18T08:39:03.702Z,102724.66
2022-12-18T08:41:32.482Z,102735.57
2022-12-18T08:44:19.801Z,102741.27
2022-12-18T08:46:48.314Z,102743.60
2022-12-18T08:49:16.939Z,102744.77
2022-12-18T08:51:45.328Z,102746.25
2022-12-18T08:54:14.237Z,102740.91
2022-12-18T08:56:42.472Z,102745.89
2022-12-18T08:59:17.321Z,102747.19
2022-12-18T09:01:48.498Z,102746.56
2022-12-18T09:04:18.873Z,102751.73
2022-12-18T09:06:49.469Z,102756.27
2022-12-18T09:09:18.081Z,102759.76
2022-12-18T09:11:47.022Z,102762.21
2022-12-18T09:14:15.909Z,102760.97
2022-12-18T09:16:46.783Z,102759.97
2022-12-18T09:19:15.636Z,102763.41
2022-12-18T09:21:48.310Z,102764.51
2022-12-18T09:24:17.529Z,102766.96
2022-12-18T09:26:47.241Z,102766.61
2022-12-18T09:29:19.014Z,102774.65
2022-12-18T09:31:50.648Z,102774.63
2022-12-18T09:34:21.496Z,102777.64
2022-12-18T09:36:50.683Z,102775.37
2022-12-18T09:39:20.116Z,102777.17
2022-12-18T09:41:57.228Z,102775.88
2022-12-18T09:44:28.692Z,102776.81
2022-12-18T09:47:04.039Z,102773.58
2022-12-18T09:49:35.093Z,102778.77
2022-12-18T09:52:09.531Z,102777.92
2022-12-18T09:54:44.676Z,102775.84
2022-12-18T09:57:16.282Z,102779.98
2022-12-18T09:59:50.644Z,102779.11
2022-12-18T10:02:22.051Z,102778.96
2022-12-18T10:05:01.443Z,102773.19
2022-12-18T10:07:34.218Z,102773.33
2022-12-18T10:10:07.576Z,102768.64
2022-12-18T10:12:41.419Z,102773.96
2022-12-18T10:15:16.209Z,102782.66
2022-12-18T10:17:49.467Z,102788.42
2022-12-18T10:20:24.487Z,102784.94
2022-12-18T10:23:00.477Z,102790.19
2022-12-18T10:25:32.328Z,102792.70
2022-12-18T10:28:10.808Z,102798.66
2022-12-18T10:30:42.548Z,102804.83
2022-12-18T10:33:13.067Z,102799.73
2022-12-18T10:35:42.926Z,102794.54
2022-12-18T10:38:25.387Z,102800.19
2022-12-18T10:40:55.715Z,102797.77
2022-12-18T10:43:26.178Z,102799.86
2022-12-18T10:46:04.013Z,102794.63
2022-12-18T10:48:34.854Z,102796.05
2022-12-18T10:51:12.990Z,102797.05
2022-12-18T10:53:43.851Z,102798.23
2022-12-18T10:56:12.770Z,102794.38
2022-12-18T10:58:41.695Z,102795.52
2022-12-18T11:01:12.673Z,102796.17
2022-12-18T11:03:42.959Z,102797.88
2022-12-18T11:06:13.446Z,102805.14
2022-12-18T11:08:42.993Z,102805.93
2022-12-18T11:11:21.454Z,102800.36
2022-12-18T11:14:03.276Z,102796.92
2022-12-18T11:16:36.168Z,102803.77
2022-12-18T11:19:22.187Z,102805.83
2022-12-18T11:21:51.426Z,102804.97
2022-12-18T11:24:24.129Z,102800.56
2022-12-18T11:26:57.816Z,102803.35
2022-12-18T11:29:33.499Z,102805.22
2022-12-18T11:32:25.629Z,102807.71
2022-12-18T11:34:59.615Z,102813.95
2022-12-18T11:37:27.026Z,102811.63
2022-12-18T11:39:58.447Z,102809.31
2022-12-18T11:42:32.046Z,102807.05
2022-12-18T11:45:03.409Z,102805.17
2022-12-18T11:47:38.007Z,102809.23
2022-12-18T11:50:15.736Z,102807.11
2022-12-18T11:52:44.987Z,102810.44
2022-12-18T11:55:15.634Z,102814.44
2022-12-18T11:57:51.550Z,102815.39
2022-12-18T12:00:22.132Z,102813.95
2022-12-18T12:03:16.486Z,102813.42
2022-12-18T12:05:52.409Z,102816.77
2022-12-18T12:08:28.410Z,102816.67
2022-12-18T12:11:03.043Z,102821.62
2022-12-18T12:13:41.445Z,102826.32
2022-12-18T12:16:18.147Z,102832.19
2022-12-18T12:19:05.171Z,102820.02
2022-12-18T12:21:40.075Z,102813.24
2022-12-18T12:24:21.132Z,102815.75
2022-12-18T12:26:56.270Z,102818.29
2022-12-18T12:29:34.805Z,102819.71
2022-12-18T12:32:20.323Z,102819.13
2022-12-18T12:35:00.827Z,102829.66
2022-12-18T12:37:40.411Z,102836.39
2022-12-18T12:40:48.435Z,102838.17
2022-12-18T12:43:13.515Z,102838.55
2022-12-18T12:45:44.357Z,102841.20
2022-12-18T12:48:18.916Z,102852.16
2022-12-18T12:50:49.146Z,102857.32
2022-12-18T12:53:24.881Z,102858.54
2022-12-18T12:55:55.725Z,102853.98
2022-12-18T12:58:32.627Z,102851.02
2022-12-18T13:01:09.293Z,102853.36
2022-12-18T13:03:45.266Z,102861.47
2022-12-18T13:06:20.082Z,102866.23
2022-12-18T13:08:57.914Z,102873.79
2022-12-18T13:11:59.747Z,102878.39
2022-12-18T13:14:33.767Z,102884.39
2022-12-18T13:17:31.353Z,102887.09
2022-12-18T13:20:11.812Z,102894.47
2022-12-18T13:22:44.232Z,102903.58
2022-12-18T13:25:33.960Z,102902.67
2022-12-18T13:28:08.935Z,102902.30
2022-12-18T13:30:48.968Z,102897.71
2022-12-18T13:34:02.072Z,102895.25
2022-12-18T13:36:32.083Z,102897.25
2022-12-18T13:39:35.260Z,102903.30
2022-12-18T13:42:54.199Z,102904.73
2022-12-18T13:45:46.130Z,102902.31
2022-12-18T13:48:24.862Z,102909.21
2022-12-18T13:51:03.767Z,102908.00
2022-12-18T13:53:36.808Z,102909.42
2022-12-18T13:56:06.143Z,102913.84
2022-12-18T13:58:34.712Z,102919.55
2022-12-18T14:01:05.678Z,102918.23
2022-12-18T14:03:34.262Z,102928.48
2022-12-18T14:06:05.480Z,102929.79
2022-12-18T14:08:40.881Z,102936.66
2022-12-18T14:11:20.147Z,102937.41
2022-12-18T14:13:50.366Z,102933.97
2022-12-18T14:16:19.518Z,102937.20
2022-12-18T14:18:51.724Z,102938.90
2022-12-18T14:21:23.184Z,102943.39
2022-12-18T14:24:05.027Z,102945.58
2022-12-18T14:26:33.817Z,102952.23
2022-12-18T14:29:18.309Z,102946.80
2022-12-18T14:31:46.819Z,102945.21
2022-12-18T14:34:17.793Z,102938.55
2022-12-18T14:36:56.299Z,102939.42
2022-12-18T14:39:25.813Z,102938.36
2022-12-18T14:41:54.864Z,102941.52
2022-12-18T14:44:23.139Z,102945.58
2022-12-18T14:46:52.081Z,102950.34
2022-12-18T14:49:24.339Z,102949.48
2022-12-18T14:51:53.993Z,102949.81
2022-12-18T14:54:23.718Z,102953.01
2022-12-18T14:56:55.291Z,102959.55
2022-12-18T14:59:25.163Z,102963.45
2022-12-18T15:02:00.511Z,102963.63
2022-12-18T15:04:31.862Z,102965.05
2022-12-18T15:07:20.883Z,102964.09
2022-12-18T15:10:09.087Z,102967.05
2022-12-18T15:12:39.901Z,102965.45
2022-12-18T15:15:40.783Z,102969.94
2022-12-18T15:18:14.019Z,102976.20
2022-12-18T15:20:44.441Z,102979.27
2022-12-18T15:23:16.802Z,102978.96
2022-12-18T15:25:45.528Z,102978.31
2022-12-18T15:28:26.273Z,102978.17
2022-12-18T15:31:05.772Z,102978.72
2022-12-18T15:33:36.238Z,102979.59
2022-12-18T15:36:09.039Z,102982.04
2022-12-18T15:38:41.414Z,102982.21
2022-12-18T15:41:21.433Z,102981.88
2022-12-18T15:43:56.708Z,102989.88
2022-12-18T15:46:28.106Z,102986.11
2022-12-18T15:49:02.149Z,102988.52
2022-12-18T15:51:38.625Z,102991.25
2022-12-18T15:54:13.565Z,102991.75
2022-12-18T15:57:00.778Z,102994.52
2022-12-18T15:59:29.433Z,102992.77
2022-12-18T16:02:00.291Z,102998.73
2022-12-18T16:04:29.402Z,103001.73
2022-12-18T16:07:14.379Z,102999.82
2022-12-18T16:09:43.621Z,103001.58
2022-12-18T16:12:16.627Z,103002.95
2022-12-18T16:14:45.305Z,103005.56
2022-12-18T16:17:15.055Z,103001.88
2022-12-18T16:19:44.184Z,102998.58
2022-12-18T16:22:28.470Z,102999.49
2022-12-18T16:24:57.756Z,103003.70
2022-12-18T16:27:26.632Z,103004.09
2022-12-18T16:29:54.922Z,103001.70
2022-12-18T16:32:24.841Z,103006.10
2022-12-18T16:34:53.326Z,103008.56
2022-12-18T16:37:21.602Z,103007.71
2022-12-18T16:39:49.881Z,103001.96
2022-12-18T16:42:20.884Z,103000.05
2022-12-18T16:44:50.281Z,103003.77
2022-12-18T16:47:19.526Z,103002.20
2022-12-18T16:49:51.094Z,103012.04
2022-12-18T16:52:19.769Z,103012.95
2022-12-18T16:54:48.604Z,103010.35
2022-12-18T16:57:19.756Z,103008.35
2022-12-18T16:59:50.271Z,103016.86
2022-12-18T17:02:23.712Z,103020.23
2022-12-18T17:04:55.688Z,103027.32
2022-12-18T17:07:24.804Z,103029.64
2022-12-18T17:09:53.473Z,103029.45
2022-12-18T17:12:22.719Z,103033.66
2022-12-18T17:14:51.078Z,103035.27
2022-12-18T17:17:21.916Z,103036.00
2022-12-18T17:19:52.101Z,103042.52
2022-12-18T17:22:22.500Z,103043.78
2022-12-18T17:24:51.606Z,103045.21
2022-12-18T17:27:20.787Z,103044.02
2022-12-18T17:29:49.522Z,103042.65
2022-12-18T17:32:18.214Z,103037.77
2022-12-18T17:34:47.867Z,103041.44
2022-12-18T17:37:16.495Z,103041.11
2022-12-18T17:39:44.756Z,103038.77
2022-12-18T17:42:15.932Z,103041.12
2022-12-18T17:44:44.946Z,103046.25
2022-12-18T17:47:14.380Z,103043.98
2022-12-18T17:49:43.263Z,103037.11
2022-12-18T17:52:12.004Z,103039.73
2022-12-18T17:54:41.538Z,103044.81
2022-12-18T17:57:10.861Z,103049.02
2022-12-18T17:59:39.150Z,103052.55
2022-12-18T18:02:10.358Z,103059.57
2022-12-18T18:04:39.189Z,103067.27
2022-12-18T18:07:07.450Z,103076.90
2022-12-18T18:09:35.946Z,103070.44
2022-12-18T18:12:22.884Z,103066.27
2022-12-18T18:14:51.686Z,103066.44
2022-12-18T18:17:20.165Z,103068.91
2022-12-18T18:19:49.710Z,103063.51
2022-12-18T18:22:19.494Z,103056.35
2022-12-18T18:24:48.689Z,103052.52
2022-12-18T18:27:17.241Z,103049.39
2022-12-18T18:29:45.680Z,103057.69
2022-12-18T18:32:13.953Z,103059.66
2022-12-18T18:34:42.226Z,103066.00
2022-12-18T18:37:11.444Z,103069.58
2022-12-18T18:39:40.062Z,103076.27
2022-12-18T18:42:08.447Z,103077.52
2022-12-18T18:44:37.315Z,103074.58
2022-12-18T18:47:07.400Z,103071.98
2022-12-18T18:49:38.126Z,103072.23
2022-12-18T18:52:09.175Z,103072.13
2022-12-18T18:54:37.591Z,103073.77
2022-12-18T18:57:24.245Z,103071.73
2022-12-18T18:59:54.821Z,103072.16
2022-12-18T19:02:23.533Z,103066.42
2022-12-18T19:04:51.960Z,103058.42
2022-12-18T19:07:29.744Z,103053.05
2022-12-18T19:10:04.608Z,103049.05
2022-12-18T19:12:53.243Z,103046.27
2022-12-18T19:15:21.837Z,103057.67
2022-12-18T19:17:50.764Z,103074.51
2022-12-18T19:20:19.426Z,103082.58
2022-12-18T19:22:50.948Z,103076.67
2022-12-18T19:25:38.015Z,103062.90
2022-12-18T19:28:21.904Z,103062.95
2022-12-18T19:30:57.318Z,103073.70
2022-12-18T19:33:44.409Z,103074.40
2022-12-18T19:36:17.517Z,103080.89
2022-12-18T19:38:46.217Z,103085.10
2022-12-18T19:41:14.933Z,103091.95
2022-12-18T19:43:43.414Z,103095.13
2022-12-18T19:46:14.113Z,103093.21
2022-12-18T19:48:43.597Z,103098.29
2022-12-18T19:51:15.384Z,103099.17
2022-12-18T19:53:43.668Z,103101.29
2022-12-18T19:56:20.090Z,103096.06
2022-12-18T19:58:48.497Z,103098.53
2022-12-18T20:01:18.172Z,103095.75
2022-12-18T20:03:52.765Z,103090.35
2022-12-18T20:06:26.095Z,103090.36
2022-12-18T20:08:59.454Z,103086.70
2022-12-18T20:11:30.186Z,103083.38
2022-12-18T20:14:01.662Z,103085.30
2022-12-18T20:16:30.847Z,103090.19
2022-12-18T20:19:00.177Z,103093.66
2022-12-18T20:21:31.611Z,103091.56
2022-12-18T20:24:01.863Z,103095.77
2022-12-18T20:26:30.543Z,103095.98
2022-12-18T20:28:58.783Z,103091.96
2022-12-18T20:31:27.177Z,103093.02
2022-12-18T20:33:59.601Z,103091.45
2022-12-18T20:36:29.555Z,103096.70
2022-12-18T20:39:01.668Z,103099.84
2022-12-18T20:41:36.447Z,103097.90
2022-12-18T20:44:11.012Z,103094.74
2022-12-18T20:46:54.653Z,103094.76
2022-12-18T20:49:23.761Z,103095.26
2022-12-18T20:51:53.070Z,103095.05
2022-12-18T20:54:21.888Z,103102.91
2022-12-18T20:56:51.134Z,103107.61
2022-12-18T20:59:19.761Z,103113.76
2022-12-18T21:01:49.370Z,103119.70
2022-12-18T21:04:18.961Z,103123.72
2022-12-18T21:06:52.909Z,103120.23
2022-12-18T21:09:22.957Z,103119.37
2022-12-18T21:12:11.106Z,103123.39
2022-12-18T21:14:43.608Z,103127.57
2022-12-18T21:17:12.310Z,103121.80
2022-12-18T21:19:40.741Z,103119.34
2022-12-18T21:22:10.544Z,103125.81
2022-12-18T21:24:39.210Z,103124.60
2022-12-18T21:27:07.455Z,103120.75
2022-12-18T21:29:35.932Z,103123.19
2022-12-18T21:32:05.032Z,103119.00
2022-12-18T21:34:34.617Z,103108.52
2022-12-18T21:37:04.244Z,103098.39
2022-12-18T21:39:32.928Z,103095.64
2022-12-18T21:42:30.966Z,103093.40
2022-12-18T21:44:59.904Z,103096.45
2022-12-18T21:47:28.160Z,103095.25
2022-12-18T21:49:56.409Z,103094.44
2022-12-18T21:52:31.281Z,103087.30
2022-12-18T21:55:08.043Z,103082.95
2022-12-18T21:57:38.174Z,103071.40
2022-12-18T22:00:18.538Z,103065.12
2022-12-18T22:02:48.816Z,103060.41
2022-12-18T22:05:37.037Z,103051.14
2022-12-18T22:08:06.336Z,103044.84
2022-12-18T22:10:35.668Z,103044.85
2022-12-18T22:13:06.072Z,103037.86
2022-12-18T22:15:35.440Z,103028.06
2022-12-18T22:18:03.889Z,103024.56
2022-12-18T22:20:32.414Z,103021.63
2022-12-18T22:23:06.065Z,103014.81
2022-12-18T22:25:34.459Z,103007.11
2022-12-18T22:28:22.271Z,103010.63
2022-12-18T22:30:50.511Z,103009.40
2022-12-18T22:33:24.123Z,103015.70
2022-12-18T22:35:52.371Z,103018.70
2022-12-18T22:38:20.571Z,103018.53
2022-12-18T22:40:48.861Z,103014.17
2022-12-18T22:43:17.357Z,103015.40
2022-12-18T22:45:46.766Z,103012.13
2022-12-18T22:48:15.775Z,103009.17
2022-12-18T22:50:44.809Z,103011.14
2022-12-18T22:53:13.374Z,103010.50
2022-12-18T22:55:41.800Z,103009.30
2022-12-18T22:58:10.062Z,103009.84
2022-12-18T23:00:38.323Z,103005.68
2022-12-18T23:03:07.292Z,103009.02
2022-12-18T23:05:35.989Z,103014.11
2022-12-18T23:08:04.923Z,103018.13
2022-12-18T23:10:33.236Z,103021.66
2022-12-18T23:13:01.502Z,103021.69
2022-12-18T23:15:30.527Z,103020.30
2022-12-18T23:17:58.988Z,103014.94
2022-12-18T23:20:28.293Z,103010.95
2022-12-18T23:22:58.886Z,103012.38
2022-12-18T23:25:30.480Z,103016.58
2022-12-18T23:27:58.723Z,103011.69
2022-12-18T23:30:26.984Z,103005.75
2022-12-18T23:32:55.845Z,103003.52
2022-12-18T23:35:24.260Z,103003.36
2022-12-18T23:38:00.486Z,103004.81
2022-12-18T23:40:31.410Z,103005.20
2022-12-18T23:43:00.069Z,102995.98
2022-12-18T23:45:28.550Z,102997.77
2022-12-18T23:47:57.447Z,102999.34
2022-12-18T23:50:29.465Z,102999.17
2022-12-18T23:53:02.130Z,103000.05
2022-12-18T23:55:39.133Z,102999.22
2022-12-18T23:58:08.630Z,103001.34
